Главная страница
METAR-TAF:

METAR-TAF

Аэропорты :

Wellsville Municipal Airport (Tarantine Field)

Wellsville, Нью-Йорк, США

широта: 42-06-27N, долгота: 077-59-04W, высота над уровнем моря: 647 м

Текущие метеонаблюдения

Эта сводка был подготовлена 15 минут назад, в 19:56 UTC
Ветер 20 Узел от западно-северо-западный с порывами до 25 Узел
Температура 4°C
Влажность 100%
Давление 1003 hPa
Видимость: 4.8 км
Рассеянная облачность на высоте 1100 фута
Сплошная облачность на высоте 1400 фута
небольшой дождь, дымка

METAR: KELZ 171956Z AUTO 30020G25KT 3SM -RA BR BKN011 OVC014 04/04 A2962 RMK AO2 PK WND 31037/1857 CIG 008V012 SLP044 P0000 T00440039

Время: 16:11 (20:11 UTC)


TAF: отсутствует

Метеонаблюдения и прогнозы для более 4000 аэропортов (сводки METAR и TAF).

Имеющиеся станции представлены на карте желтыми и красными точками.

Чтобы увидеть название станции, наведите на нее мышь.

Затем щелкните, чтобы увидеть метеонаблюдения и метеопрогнозы.

Управление картой: чтобы увеличить масштаб, щелкните зеленые кнопки с черным крестиком; чтобы уменьшить масштаб, щелкните зеленую кнопку с тире; для просмотра соседних карт щелкайте зеленые стрелки.


METAR-TAF: